Mulberry, Arkansas
Current Conditions -  °F | °C
As of 2:53 PM on Monday 24 Nov 2014 (Local Time) from KFSM Reporting Station
Clear Clear  
Wind Chill: 58°   Ceiling: Unl
Heat Index: 58°   Visibility: 10mi
Dew Point: 23°   Wind: 24mph
Humidity: 26%   Direction: 280°W
Pressure: 29.92"   Gusts: 30mph
Location:  35.5°N, 94.05°W
Report Text: KFSM 242053Z 28021G26KT 10SM CLR 14/M05 A2992 RMK AO2 PK WND 27030/2039 SLP132 T01441050 55000
Loading
Personal Weather Stations






























Interactive Weather Map New forecast layout! Learn more

10-Day Weather Forecast

Advertisements
Track Severe Weather on mobile